createdAt,value
2018-12-29T00:03:14.935Z,2.41
2018-12-29T00:07:20.033Z,2.52
2018-12-29T00:11:25.492Z,2.42
2018-12-29T00:15:30.663Z,2.42
2018-12-29T00:19:35.869Z,2.53
2018-12-29T00:23:40.842Z,2.51
2018-12-29T00:27:45.887Z,2.52
2018-12-29T00:31:51.413Z,2.53
2018-12-29T00:35:56.542Z,2.53
2018-12-29T00:40:01.462Z,2.63
2018-12-29T00:44:06.561Z,2.58
2018-12-29T00:48:11.670Z,2.57
2018-12-29T00:52:16.728Z,2.60
2018-12-29T00:56:21.721Z,2.61
2018-12-29T01:00:26.736Z,2.58
2018-12-29T01:04:31.808Z,2.56
2018-12-29T01:08:37.213Z,2.55
2018-12-29T01:12:42.274Z,2.64
2018-12-29T01:16:47.401Z,2.53
2018-12-29T01:20:52.430Z,2.56
2018-12-29T01:24:57.577Z,2.58
2018-12-29T01:29:02.749Z,2.58
2018-12-29T01:33:07.797Z,2.59
2018-12-29T01:37:12.932Z,2.61
2018-12-29T01:41:18.033Z,2.59
2018-12-29T01:45:23.121Z,2.63
2018-12-29T01:49:28.221Z,2.65
2018-12-29T01:53:33.550Z,2.67
2018-12-29T01:57:57.545Z,2.69
2018-12-29T02:02:02.725Z,2.75
2018-12-29T02:06:07.627Z,2.69
2018-12-29T02:10:12.650Z,2.70
2018-12-29T02:14:17.802Z,2.68
2018-12-29T02:18:22.898Z,2.74
2018-12-29T02:22:28.019Z,2.70
2018-12-29T02:26:33.064Z,2.72
2018-12-29T02:30:38.230Z,2.79
2018-12-29T02:34:43.249Z,2.75
2018-12-29T02:38:48.406Z,2.75
2018-12-29T02:42:53.501Z,2.79
2018-12-29T02:46:58.603Z,2.72
2018-12-29T02:51:03.693Z,2.67
2018-12-29T02:55:08.758Z,2.74
2018-12-29T02:59:13.861Z,2.65
2018-12-29T03:03:18.913Z,2.60
2018-12-29T03:07:23.986Z,2.59
2018-12-29T03:11:29.060Z,2.55
2018-12-29T03:15:40.900Z,2.51
2018-12-29T03:19:46.016Z,2.54
2018-12-29T03:23:51.077Z,2.55
2018-12-29T03:27:56.164Z,2.55
2018-12-29T03:32:01.248Z,2.46
2018-12-29T03:36:06.276Z,2.48
2018-12-29T03:40:11.427Z,2.41
2018-12-29T03:44:16.519Z,2.44
2018-12-29T03:48:21.577Z,2.46
2018-12-29T03:52:26.632Z,2.46
2018-12-29T03:56:31.662Z,2.46
2018-12-29T04:00:37.035Z,2.51
2018-12-29T04:04:42.121Z,2.52
2018-12-29T04:09:25.379Z,2.53
2018-12-29T04:13:30.430Z,2.53
2018-12-29T04:17:35.495Z,2.50
2018-12-29T04:21:40.536Z,2.52
2018-12-29T04:25:45.607Z,2.50
2018-12-29T04:29:50.687Z,2.55
2018-12-29T04:33:55.761Z,2.52
2018-12-29T04:38:00.846Z,2.57
2018-12-29T04:42:05.893Z,2.57
2018-12-29T04:46:11.028Z,2.58
2018-12-29T04:50:16.101Z,2.61
2018-12-29T04:54:21.203Z,2.68
2018-12-29T04:58:26.253Z,2.66
2018-12-29T05:02:31.288Z,2.67
2018-12-29T05:06:36.447Z,2.69
2018-12-29T05:10:41.425Z,2.69
2018-12-29T05:14:46.497Z,2.71
2018-12-29T05:18:51.550Z,2.71
2018-12-29T05:22:56.602Z,2.79
2018-12-29T05:27:01.654Z,2.77
2018-12-29T05:31:06.656Z,2.75
2018-12-29T05:35:11.701Z,2.77
2018-12-29T05:39:17.009Z,2.80
2018-12-29T05:43:22.136Z,2.82
2018-12-29T05:47:27.120Z,2.84
2018-12-29T05:51:32.479Z,2.90
2018-12-29T05:55:37.888Z,2.90
2018-12-29T05:59:42.867Z,2.90
2018-12-29T06:03:47.922Z,2.95
2018-12-29T06:07:53.529Z,2.87
2018-12-29T06:12:00.179Z,2.94
2018-12-29T06:16:05.299Z,2.96
2018-12-29T06:20:10.427Z,2.90
2018-12-29T06:24:15.463Z,2.91
2018-12-29T06:28:20.470Z,2.95
2018-12-29T06:32:26.092Z,2.93
2018-12-29T06:36:31.300Z,2.99
2018-12-29T06:40:36.343Z,2.96
2018-12-29T06:44:41.404Z,2.99
2018-12-29T06:48:46.379Z,3.02
2018-12-29T06:52:51.427Z,3.03
2018-12-29T06:56:56.404Z,3.02
2018-12-29T07:01:01.484Z,3.08
2018-12-29T07:05:06.556Z,3.03
2018-12-29T07:09:11.603Z,3.15
2018-12-29T07:13:18.798Z,3.14
2018-12-29T07:17:24.352Z,3.15
2018-12-29T07:21:29.412Z,3.17
2018-12-29T07:25:34.681Z,3.19
2018-12-29T07:29:39.748Z,3.23
2018-12-29T07:33:44.858Z,3.23
2018-12-29T07:37:49.880Z,3.29
2018-12-29T07:41:54.892Z,3.26
2018-12-29T07:45:59.907Z,3.28
2018-12-29T07:50:05.001Z,3.33
2018-12-29T07:54:10.350Z,3.32
2018-12-29T07:58:15.416Z,3.38
2018-12-29T08:02:20.612Z,3.38
2018-12-29T08:06:25.648Z,3.41
2018-12-29T08:10:30.950Z,3.48
2018-12-29T08:14:35.994Z,3.45
2018-12-29T08:18:40.985Z,3.46
2018-12-29T08:22:46.043Z,3.55
2018-12-29T08:26:51.016Z,3.58
2018-12-29T08:30:56.413Z,3.57
2018-12-29T08:35:01.466Z,3.55
2018-12-29T08:39:07.409Z,3.59
2018-12-29T08:43:12.406Z,3.62
2018-12-29T08:47:17.698Z,3.61
2018-12-29T08:51:22.685Z,3.65
2018-12-29T08:55:27.824Z,3.67
2018-12-29T08:59:32.823Z,3.71
2018-12-29T09:03:37.806Z,3.75
2018-12-29T09:07:42.898Z,3.81
2018-12-29T09:11:48.039Z,3.78
2018-12-29T09:15:53.105Z,3.84
2018-12-29T09:19:58.403Z,3.85
2018-12-29T09:24:03.755Z,3.95
2018-12-29T09:28:08.712Z,3.99
2018-12-29T09:32:13.818Z,4.00
2018-12-29T09:36:18.909Z,4.03
2018-12-29T09:40:23.974Z,4.08
2018-12-29T09:44:29.119Z,4.12
2018-12-29T09:48:34.251Z,4.14
2018-12-29T09:52:39.704Z,4.24
2018-12-29T09:56:44.895Z,4.28
2018-12-29T10:00:50.013Z,4.34
2018-12-29T10:04:55.502Z,4.41
2018-12-29T10:09:00.571Z,4.49
2018-12-29T10:13:05.739Z,4.58
2018-12-29T10:17:10.808Z,4.65
2018-12-29T10:21:15.879Z,4.70
2018-12-29T10:25:20.944Z,4.80
2018-12-29T10:29:26.024Z,4.89
2018-12-29T10:33:31.096Z,4.95
2018-12-29T10:37:36.168Z,5.13
2018-12-29T10:41:41.142Z,5.15
2018-12-29T10:45:46.206Z,5.20
2018-12-29T10:49:51.306Z,5.17
2018-12-29T10:53:56.450Z,5.22
2018-12-29T10:58:01.506Z,5.25
2018-12-29T11:02:06.638Z,5.35
2018-12-29T11:06:11.825Z,5.51
2018-12-29T11:10:16.916Z,5.62
2018-12-29T11:14:21.982Z,5.68
2018-12-29T11:18:27.029Z,5.81
2018-12-29T11:22:32.225Z,5.83
2018-12-29T11:26:37.308Z,5.81
2018-12-29T11:30:52.202Z,5.80
2018-12-29T11:34:57.225Z,5.75
2018-12-29T11:39:02.292Z,5.79
2018-12-29T11:43:07.363Z,5.77
2018-12-29T11:47:12.418Z,5.73
2018-12-29T11:51:17.486Z,5.81
2018-12-29T11:55:22.858Z,5.99
2018-12-29T11:59:28.206Z,5.94
2018-12-29T12:03:33.263Z,6.00
2018-12-29T12:07:38.487Z,6.03
2018-12-29T12:11:44.387Z,6.03
2018-12-29T12:15:49.353Z,6.13
2018-12-29T12:19:54.447Z,5.97
2018-12-29T12:23:59.466Z,5.96
2018-12-29T12:28:04.541Z,5.95
2018-12-29T12:32:09.609Z,5.98
2018-12-29T12:36:14.557Z,6.00
2018-12-29T12:40:19.649Z,6.02
2018-12-29T12:44:24.648Z,6.04
2018-12-29T12:48:29.777Z,6.04
2018-12-29T12:52:35.141Z,6.11
2018-12-29T12:56:40.267Z,6.06
2018-12-29T13:00:45.492Z,6.09
2018-12-29T13:04:50.954Z,6.07
2018-12-29T13:08:56.055Z,6.05
2018-12-29T13:13:01.487Z,6.05
2018-12-29T13:17:06.637Z,6.08
2018-12-29T13:21:11.718Z,6.04
2018-12-29T13:25:16.808Z,6.00
2018-12-29T13:29:21.869Z,5.97
2018-12-29T13:33:26.879Z,5.98
2018-12-29T13:37:32.837Z,6.00
2018-12-29T13:45:54.861Z,6.06
2018-12-29T13:49:59.951Z,6.03
2018-12-29T13:54:05.083Z,5.93
2018-12-29T13:58:10.125Z,5.84
2018-12-29T14:02:15.314Z,5.82
2018-12-29T14:06:20.513Z,5.81
2018-12-29T14:10:25.766Z,5.82
2018-12-29T14:14:30.890Z,5.85
2018-12-29T14:18:35.998Z,5.85
2018-12-29T14:22:41.472Z,5.92
2018-12-29T14:26:46.589Z,5.81
2018-12-29T14:30:51.669Z,5.86
2018-12-29T14:34:56.770Z,5.80
2018-12-29T14:39:01.817Z,5.78
2018-12-29T14:43:06.802Z,5.74
2018-12-29T14:47:12.205Z,5.77
2018-12-29T14:51:17.278Z,5.80
2018-12-29T14:55:22.650Z,5.76
2018-12-29T14:59:27.841Z,5.80
2018-12-29T15:03:32.901Z,5.80
2018-12-29T15:07:37.983Z,5.70
2018-12-29T15:11:43.065Z,5.74
2018-12-29T15:15:48.061Z,5.75
2018-12-29T15:19:53.353Z,5.69
2018-12-29T15:23:58.354Z,5.57
2018-12-29T15:28:03.406Z,5.52
2018-12-29T15:32:15.594Z,5.50
2018-12-29T15:36:20.708Z,5.49
2018-12-29T15:40:25.775Z,5.50
2018-12-29T15:44:30.865Z,5.51
2018-12-29T15:48:36.245Z,5.53
2018-12-29T15:52:41.301Z,5.57
2018-12-29T15:56:46.314Z,5.59
2018-12-29T16:00:51.395Z,5.63
2018-12-29T16:04:56.506Z,5.64
2018-12-29T16:09:01.589Z,5.58
2018-12-29T16:13:08.500Z,5.56
2018-12-29T16:17:13.426Z,5.56
2018-12-29T16:21:30.663Z,5.54
2018-12-29T16:25:35.786Z,5.52
2018-12-29T16:29:40.775Z,5.47
2018-12-29T16:33:45.731Z,5.41
2018-12-29T16:37:57.969Z,5.39
2018-12-29T16:42:03.029Z,5.40
2018-12-29T16:46:08.005Z,5.39
2018-12-29T16:50:13.162Z,5.38
2018-12-29T16:54:18.152Z,5.35
2018-12-29T16:58:23.161Z,5.40
2018-12-29T17:02:28.789Z,5.39
2018-12-29T17:06:33.796Z,5.38
2018-12-29T17:10:38.785Z,5.42
2018-12-29T17:19:00.886Z,5.45
2018-12-29T17:23:06.002Z,5.50
2018-12-29T17:27:11.286Z,5.56
2018-12-29T17:31:16.322Z,5.58
2018-12-29T17:40:05.926Z,5.68
2018-12-29T17:44:10.954Z,5.78
2018-12-29T17:48:16.057Z,5.81
2018-12-29T17:52:21.178Z,5.87
2018-12-29T17:56:26.240Z,5.91
2018-12-29T18:00:31.417Z,5.94
2018-12-29T18:04:36.798Z,6.01
2018-12-29T18:08:41.971Z,6.02
2018-12-29T18:17:38.439Z,6.15
2018-12-29T18:21:43.471Z,6.16
2018-12-29T18:25:48.529Z,6.14
2018-12-29T18:30:12.983Z,6.20
2018-12-29T18:34:18.010Z,6.25
2018-12-29T18:43:07.181Z,6.26
2018-12-29T18:47:12.645Z,6.30
2018-12-29T18:51:17.753Z,6.34
2018-12-29T18:55:30.113Z,6.34
2018-12-29T18:59:35.110Z,6.41
2018-12-29T19:03:40.235Z,6.37
2018-12-29T19:07:57.120Z,6.43
2018-12-29T19:12:02.213Z,6.43
2018-12-29T19:16:07.554Z,6.57
2018-12-29T19:29:26.348Z,6.73
2018-12-29T19:33:31.595Z,6.74
2018-12-29T19:37:58.125Z,6.87
2018-12-29T19:42:03.196Z,7.02
2018-12-29T19:46:08.580Z,7.03
2018-12-29T19:50:13.617Z,7.23
2018-12-29T19:54:18.689Z,7.26
2018-12-29T19:58:23.751Z,7.25
2018-12-29T20:02:28.785Z,7.25
2018-12-29T20:06:34.053Z,7.20
2018-12-29T20:10:39.051Z,7.16
2018-12-29T20:14:56.019Z,7.34
2018-12-29T20:19:01.021Z,7.34
2018-12-29T20:23:06.155Z,7.31
2018-12-29T20:27:11.411Z,7.40
2018-12-29T20:31:16.424Z,7.46
2018-12-29T20:35:21.611Z,7.59
2018-12-29T20:43:45.413Z,7.69
2018-12-29T20:47:52.236Z,7.71
2018-12-29T20:51:57.191Z,7.71
2018-12-29T20:56:02.302Z,7.82
2018-12-29T21:00:09.057Z,7.92
2018-12-29T21:04:14.045Z,8.02
2018-12-29T21:08:19.030Z,7.97
2018-12-29T21:12:24.095Z,8.01
2018-12-29T21:16:29.103Z,8.01
2018-12-29T21:20:34.092Z,8.02
2018-12-29T21:24:39.193Z,8.03
2018-12-29T21:28:44.382Z,8.16
2018-12-29T21:32:49.785Z,8.13
2018-12-29T21:36:54.834Z,7.96
2018-12-29T21:40:59.931Z,7.99
2018-12-29T21:45:05.155Z,7.99
2018-12-29T21:49:11.206Z,8.26
2018-12-29T21:53:16.347Z,8.07
2018-12-29T21:57:21.357Z,8.06
2018-12-29T22:01:26.499Z,8.32
2018-12-29T22:05:32.294Z,8.12
2018-12-29T22:09:37.369Z,8.39
2018-12-29T22:13:42.312Z,8.32
2018-12-29T22:17:47.324Z,8.29
2018-12-29T22:21:52.420Z,8.24
2018-12-29T22:25:57.501Z,8.15
2018-12-29T22:30:02.628Z,8.18
2018-12-29T22:34:07.748Z,8.17
2018-12-29T22:38:12.800Z,7.96
2018-12-29T22:42:17.809Z,7.91
2018-12-29T22:46:22.919Z,7.91
2018-12-29T22:50:28.003Z,7.84
2018-12-29T22:54:33.056Z,7.92
2018-12-29T22:58:45.372Z,7.88
2018-12-29T23:02:50.404Z,7.98
2018-12-29T23:07:16.489Z,7.98
2018-12-29T23:11:21.553Z,8.05
2018-12-29T23:15:26.615Z,8.03
2018-12-29T23:19:31.671Z,8.02
2018-12-29T23:23:48.529Z,7.99
2018-12-29T23:27:53.581Z,7.88
2018-12-29T23:31:58.580Z,7.79
2018-12-29T23:36:47.907Z,7.88
2018-12-29T23:40:53.200Z,7.78
2018-12-29T23:44:58.441Z,7.77
2018-12-29T23:58:34.963Z,7.73
